createdAt,value
2023-03-07T00:00:23.195Z,7.56
2023-03-07T00:02:53.295Z,7.68
2023-03-07T00:05:21.100Z,7.89
2023-03-07T00:07:47.906Z,7.68
2023-03-07T00:10:15.113Z,7.87
2023-03-07T00:12:41.956Z,7.56
2023-03-07T00:15:08.990Z,8.05
2023-03-07T00:17:38.905Z,7.19
2023-03-07T00:20:07.669Z,7.50
2023-03-07T00:22:35.405Z,7.35
2023-03-07T00:25:02.329Z,6.80
2023-03-07T00:27:30.448Z,7.50
2023-03-07T00:29:57.391Z,7.19
2023-03-07T00:32:24.148Z,7.32
2023-03-07T00:34:50.711Z,6.77
2023-03-07T00:37:17.018Z,7.12
2023-03-07T00:39:43.725Z,7.34
2023-03-07T00:42:10.380Z,7.29
2023-03-07T00:44:36.789Z,7.11
2023-03-07T00:47:03.871Z,7.38
2023-03-07T00:49:30.690Z,7.49
2023-03-07T00:51:57.359Z,7.38
2023-03-07T00:54:23.951Z,7.03
2023-03-07T00:56:50.760Z,7.31
2023-03-07T00:59:17.438Z,7.04
2023-03-07T01:01:44.251Z,7.32
2023-03-07T01:04:10.871Z,7.22
2023-03-07T01:06:37.399Z,7.11
2023-03-07T01:09:05.690Z,7.16
2023-03-07T01:11:32.464Z,7.01
2023-03-07T01:14:01.637Z,7.22
2023-03-07T01:16:29.797Z,7.23
2023-03-07T01:18:57.487Z,6.59
2023-03-07T01:21:28.382Z,7.69
2023-03-07T01:23:55.250Z,7.66
2023-03-07T01:26:23.109Z,7.15
2023-03-07T01:28:54.247Z,6.97
2023-03-07T01:31:21.752Z,7.48
2023-03-07T01:33:49.289Z,7.13
2023-03-07T01:36:20.779Z,7.07
2023-03-07T01:38:48.257Z,7.39
2023-03-07T01:41:15.337Z,7.27
2023-03-07T01:43:42.029Z,7.60
2023-03-07T01:46:17.815Z,7.64
2023-03-07T01:48:50.784Z,7.98
2023-03-07T01:51:18.186Z,7.50
2023-03-07T01:53:45.251Z,7.13
2023-03-07T01:56:12.061Z,7.50
2023-03-07T01:58:39.273Z,7.31
2023-03-07T02:01:10.175Z,7.19
2023-03-07T02:03:55.267Z,7.38
2023-03-07T02:06:22.763Z,7.32
2023-03-07T02:08:49.712Z,7.36
2023-03-07T02:11:16.756Z,7.60
2023-03-07T02:13:43.351Z,7.96
2023-03-07T02:16:10.378Z,7.31
2023-03-07T02:18:42.763Z,8.09
2023-03-07T02:21:19.238Z,7.50
2023-03-07T02:23:48.819Z,7.17
2023-03-07T02:26:21.277Z,7.42
2023-03-07T02:28:48.253Z,7.45
2023-03-07T02:31:14.834Z,7.62
2023-03-07T02:33:41.302Z,7.79
2023-03-07T02:36:28.194Z,6.96
2023-03-07T02:38:56.688Z,7.26
2023-03-07T02:41:26.006Z,7.68
2023-03-07T02:43:52.414Z,7.53
2023-03-07T02:46:19.858Z,7.34
2023-03-07T02:48:46.688Z,7.55
2023-03-07T02:51:13.236Z,7.60
2023-03-07T02:53:39.755Z,7.36
2023-03-07T02:56:06.598Z,7.24
2023-03-07T02:58:33.034Z,7.70
2023-03-07T03:00:59.598Z,7.87
2023-03-07T03:03:26.168Z,7.38
2023-03-07T03:05:52.803Z,7.49
2023-03-07T03:08:19.446Z,7.23
2023-03-07T03:10:45.840Z,7.74
2023-03-07T03:13:12.156Z,7.70
2023-03-07T03:15:38.782Z,7.22
2023-03-07T03:18:05.866Z,7.20
2023-03-07T03:20:32.336Z,7.47
2023-03-07T03:22:58.987Z,7.11
2023-03-07T03:25:27.093Z,7.49
2023-03-07T03:27:54.056Z,7.21
2023-03-07T03:30:20.737Z,7.59
2023-03-07T03:32:47.533Z,7.59
2023-03-07T03:35:14.611Z,7.94
2023-03-07T03:37:41.828Z,7.47
2023-03-07T03:40:14.664Z,7.54
2023-03-07T03:42:42.332Z,7.95
2023-03-07T03:45:10.096Z,7.22
2023-03-07T03:47:37.065Z,7.11
2023-03-07T03:50:04.319Z,8.02
2023-03-07T03:52:30.818Z,8.33
2023-03-07T03:54:57.499Z,8.44
2023-03-07T03:57:24.320Z,7.64
2023-03-07T03:59:51.535Z,7.63
2023-03-07T04:02:18.449Z,7.44
2023-03-07T04:04:45.034Z,7.73
2023-03-07T04:07:11.578Z,7.43
2023-03-07T04:09:37.928Z,7.96
2023-03-07T04:12:04.424Z,8.11
2023-03-07T04:14:30.920Z,7.70
2023-03-07T04:16:58.012Z,7.34
2023-03-07T04:19:24.687Z,7.47
2023-03-07T04:21:51.114Z,7.65
2023-03-07T04:24:17.508Z,7.60
2023-03-07T04:26:43.838Z,8.04
2023-03-07T04:29:10.386Z,7.82
2023-03-07T04:31:36.800Z,7.53
2023-03-07T04:34:03.591Z,7.39
2023-03-07T04:36:29.945Z,8.13
2023-03-07T04:38:56.373Z,7.88
2023-03-07T04:41:26.043Z,7.19
2023-03-07T04:43:52.382Z,7.85
2023-03-07T04:46:19.469Z,7.49
2023-03-07T04:48:46.340Z,7.36
2023-03-07T04:51:13.396Z,6.99
2023-03-07T04:53:39.981Z,7.91
2023-03-07T04:56:07.207Z,6.91
2023-03-07T04:58:33.968Z,7.98
2023-03-07T05:01:01.445Z,7.42
2023-03-07T05:03:28.425Z,7.44
2023-03-07T05:05:56.269Z,7.05
2023-03-07T05:08:23.104Z,7.07
2023-03-07T05:10:49.495Z,7.70
2023-03-07T05:13:15.961Z,7.64
2023-03-07T05:15:42.457Z,7.57
2023-03-07T05:18:08.969Z,8.12
2023-03-07T05:20:35.406Z,7.90
2023-03-07T05:23:01.909Z,8.66
2023-03-07T05:25:28.612Z,7.77
2023-03-07T05:27:55.472Z,8.16
2023-03-07T05:30:22.259Z,7.72
2023-03-07T05:32:49.038Z,7.88
2023-03-07T05:35:16.739Z,7.18
2023-03-07T05:37:43.550Z,7.79
2023-03-07T05:40:10.715Z,7.18
2023-03-07T05:42:38.674Z,7.48
2023-03-07T05:45:06.082Z,7.71
2023-03-07T05:47:32.918Z,7.38
2023-03-07T05:49:59.581Z,7.51
2023-03-07T05:52:33.748Z,7.84
2023-03-07T05:55:01.127Z,7.38
2023-03-07T05:57:28.435Z,6.58
2023-03-07T05:59:55.466Z,7.18
2023-03-07T06:02:24.439Z,7.28
2023-03-07T06:04:51.759Z,7.39
2023-03-07T06:07:18.619Z,7.29
2023-03-07T06:09:45.248Z,7.24
2023-03-07T06:12:12.002Z,7.32
2023-03-07T06:14:38.702Z,7.46
2023-03-07T06:17:05.972Z,8.01
2023-03-07T06:19:33.994Z,7.73
2023-03-07T06:22:00.759Z,7.27
2023-03-07T06:24:28.960Z,7.57
2023-03-07T06:26:56.017Z,7.79
2023-03-07T06:29:23.094Z,7.83
2023-03-07T06:31:52.573Z,7.24
2023-03-07T06:34:19.481Z,7.42
2023-03-07T06:37:00.232Z,7.57
2023-03-07T06:39:29.614Z,7.49
2023-03-07T06:41:57.524Z,6.94
2023-03-07T06:44:25.138Z,8.44
2023-03-07T06:46:52.239Z,7.38
2023-03-07T06:49:26.476Z,7.83
2023-03-07T06:51:53.191Z,7.69
2023-03-07T06:54:26.253Z,7.78
2023-03-07T06:56:53.110Z,8.07
2023-03-07T06:59:19.889Z,8.27
2023-03-07T07:01:48.968Z,8.12
2023-03-07T07:04:18.762Z,7.67
2023-03-07T07:06:51.988Z,7.81
2023-03-07T07:09:19.013Z,7.92
2023-03-07T07:11:45.678Z,8.10
2023-03-07T07:14:21.135Z,7.84
2023-03-07T07:16:48.016Z,7.55
2023-03-07T07:19:15.557Z,7.56
2023-03-07T07:21:50.527Z,7.21
2023-03-07T07:24:17.537Z,7.59
2023-03-07T07:26:46.555Z,8.46
2023-03-07T07:29:14.042Z,8.02
2023-03-07T07:31:42.515Z,9.01
2023-03-07T07:34:11.248Z,8.79
2023-03-07T07:36:38.128Z,8.01
2023-03-07T07:39:06.320Z,8.55
2023-03-07T07:41:33.652Z,7.65
2023-03-07T07:44:00.785Z,8.02
2023-03-07T07:46:30.486Z,7.92
2023-03-07T07:49:05.642Z,8.13
2023-03-07T07:51:34.065Z,9.11
2023-03-07T07:54:01.072Z,7.42
2023-03-07T07:56:35.969Z,7.39
2023-03-07T07:59:02.598Z,8.36
2023-03-07T08:01:29.407Z,8.31
2023-03-07T08:03:56.087Z,8.88
2023-03-07T08:06:26.050Z,8.79
2023-03-07T08:08:53.023Z,8.43
2023-03-07T08:11:28.177Z,8.56
2023-03-07T08:14:01.979Z,7.29
2023-03-07T08:16:30.744Z,8.16
2023-03-07T08:18:57.948Z,8.67
2023-03-07T08:21:27.886Z,7.65
2023-03-07T08:23:55.139Z,8.60
2023-03-07T08:26:22.244Z,9.28
2023-03-07T08:28:49.948Z,9.13
2023-03-07T08:31:19.090Z,9.40
2023-03-07T08:33:50.707Z,8.38
2023-03-07T08:36:17.671Z,9.12
2023-03-07T08:38:44.649Z,8.87
2023-03-07T08:41:19.562Z,9.41
2023-03-07T08:43:46.320Z,8.35
2023-03-07T08:46:13.607Z,8.16
2023-03-07T08:48:40.646Z,8.89
2023-03-07T08:51:08.578Z,8.81
2023-03-07T08:53:35.109Z,8.37
2023-03-07T08:56:06.168Z,7.90
2023-03-07T08:58:34.962Z,8.07
2023-03-07T09:01:01.986Z,8.77
2023-03-07T09:03:28.801Z,8.70
2023-03-07T09:06:15.052Z,8.75
2023-03-07T09:08:41.560Z,8.92
2023-03-07T09:11:08.915Z,9.25
2023-03-07T09:13:43.024Z,9.98
2023-03-07T09:16:13.148Z,9.38
2023-03-07T09:18:39.810Z,8.98
2023-03-07T09:21:21.310Z,8.70
2023-03-07T09:23:48.212Z,9.45
2023-03-07T09:26:25.379Z,8.33
2023-03-07T09:28:52.231Z,9.46
2023-03-07T09:31:19.404Z,7.63
2023-03-07T09:33:47.041Z,8.55
2023-03-07T09:36:21.320Z,8.43
2023-03-07T09:38:48.485Z,8.82
2023-03-07T09:41:23.708Z,8.70
2023-03-07T09:44:14.281Z,8.93
2023-03-07T09:47:02.503Z,8.13
2023-03-07T09:49:37.476Z,8.42
2023-03-07T09:52:10.914Z,8.91
2023-03-07T09:54:40.715Z,8.68
2023-03-07T09:57:17.376Z,7.79
2023-03-07T10:00:09.076Z,7.17
2023-03-07T10:02:55.018Z,8.19
2023-03-07T10:05:58.935Z,8.23
2023-03-07T10:08:29.195Z,8.33
2023-03-07T10:11:02.004Z,9.11
2023-03-07T10:13:32.019Z,8.15
2023-03-07T10:16:02.147Z,8.74
2023-03-07T10:18:53.966Z,9.31
2023-03-07T10:21:31.764Z,8.52
2023-03-07T10:24:11.934Z,7.65
2023-03-07T10:26:54.223Z,9.07
2023-03-07T10:29:24.278Z,8.17
2023-03-07T10:32:04.127Z,8.61
2023-03-07T10:34:32.702Z,7.79
2023-03-07T10:37:09.626Z,8.60
2023-03-07T10:39:46.850Z,8.08
2023-03-07T10:42:17.646Z,6.90
2023-03-07T10:44:46.228Z,6.95
2023-03-07T10:47:19.747Z,7.49
2023-03-07T10:49:47.972Z,8.76
2023-03-07T10:52:35.992Z,9.76
2023-03-07T10:55:23.676Z,9.48
2023-03-07T10:57:51.002Z,9.09
2023-03-07T11:00:18.058Z,9.04
2023-03-07T11:02:47.293Z,9.99
2023-03-07T11:05:34.633Z,9.66
2023-03-07T11:08:21.735Z,9.27
2023-03-07T11:10:48.822Z,10.43
2023-03-07T11:13:20.697Z,9.25
2023-03-07T11:15:49.873Z,11.25
2023-03-07T11:18:26.521Z,11.57
2023-03-07T11:20:53.639Z,11.31
2023-03-07T11:23:24.957Z,10.53
2023-03-07T11:26:14.267Z,10.00
2023-03-07T11:28:41.794Z,10.67
2023-03-07T11:31:18.029Z,10.35
2023-03-07T11:33:59.373Z,9.19
2023-03-07T11:36:26.825Z,8.47
2023-03-07T11:38:54.254Z,8.47
2023-03-07T11:41:42.680Z,8.73
2023-03-07T11:44:20.111Z,9.29
2023-03-07T11:47:03.135Z,9.68
2023-03-07T11:49:35.140Z,9.37
2023-03-07T11:52:03.604Z,10.50
2023-03-07T11:54:50.223Z,10.04
2023-03-07T11:57:36.638Z,8.61
2023-03-07T12:00:03.832Z,8.31
2023-03-07T12:02:59.797Z,9.60
2023-03-07T12:05:29.607Z,10.11
2023-03-07T12:07:58.142Z,9.05
2023-03-07T12:10:41.375Z,9.48
2023-03-07T12:13:14.727Z,8.44
2023-03-07T12:16:06.679Z,9.00
2023-03-07T12:18:44.560Z,8.52
2023-03-07T12:21:11.934Z,7.72
2023-03-07T12:23:39.637Z,8.71
2023-03-07T12:26:17.706Z,8.09
2023-03-07T12:28:49.374Z,7.85
2023-03-07T12:31:28.701Z,8.00
2023-03-07T12:33:55.639Z,7.85
2023-03-07T12:36:22.902Z,8.26
2023-03-07T12:39:00.523Z,8.69
2023-03-07T12:41:41.111Z,7.92
2023-03-07T12:44:13.504Z,9.49
2023-03-07T12:47:04.843Z,8.38
2023-03-07T12:49:50.509Z,8.52
2023-03-07T12:52:38.885Z,7.96
2023-03-07T12:55:18.648Z,8.08
2023-03-07T12:57:51.113Z,7.74
2023-03-07T13:00:22.214Z,7.50
2023-03-07T13:03:02.694Z,8.03
2023-03-07T13:05:30.111Z,7.43
2023-03-07T13:08:16.122Z,8.93
2023-03-07T13:10:45.154Z,8.50
2023-03-07T13:13:51.092Z,7.88
2023-03-07T13:16:40.315Z,7.50
2023-03-07T13:19:26.774Z,7.64
2023-03-07T13:21:54.121Z,7.36
2023-03-07T13:24:38.596Z,8.24
2023-03-07T13:27:18.898Z,8.21
2023-03-07T13:30:04.524Z,8.52
2023-03-07T13:32:57.290Z,8.06
2023-03-07T13:35:33.195Z,9.08
2023-03-07T13:38:18.593Z,8.77
2023-03-07T13:40:45.439Z,8.34
2023-03-07T13:43:33.487Z,9.00
2023-03-07T13:46:00.672Z,8.85
2023-03-07T13:48:28.770Z,7.59
2023-03-07T13:50:55.281Z,8.89
2023-03-07T13:53:25.189Z,8.80
2023-03-07T13:56:12.589Z,7.82
2023-03-07T13:58:44.639Z,8.47
2023-03-07T14:01:47.211Z,7.91
2023-03-07T14:04:13.706Z,7.17
2023-03-07T14:06:42.679Z,7.25
2023-03-07T14:09:14.623Z,7.09
2023-03-07T14:11:45.476Z,7.55
2023-03-07T14:14:21.369Z,7.51
2023-03-07T14:17:07.467Z,8.44
2023-03-07T14:19:35.610Z,9.21
2023-03-07T14:22:06.417Z,8.34
2023-03-07T14:24:51.364Z,8.46
2023-03-07T14:27:18.282Z,8.18
2023-03-07T14:29:49.621Z,8.04
2023-03-07T14:32:32.381Z,8.86
2023-03-07T14:35:00.938Z,9.19
2023-03-07T14:37:32.884Z,8.82
2023-03-07T14:40:01.025Z,9.01
2023-03-07T14:42:33.987Z,9.16
2023-03-07T14:45:04.210Z,8.85
2023-03-07T14:47:55.536Z,8.90
2023-03-07T14:50:26.221Z,8.05
2023-03-07T14:52:56.133Z,8.00
2023-03-07T14:55:24.423Z,9.57
2023-03-07T14:57:53.154Z,8.40
2023-03-07T15:00:29.556Z,7.67
2023-03-07T15:03:04.387Z,8.24
2023-03-07T15:05:32.686Z,8.57
2023-03-07T15:07:59.790Z,8.59
2023-03-07T15:10:35.019Z,8.69
2023-03-07T15:13:04.035Z,8.22
2023-03-07T15:15:35.830Z,8.32
2023-03-07T15:18:25.657Z,8.16
2023-03-07T15:20:53.954Z,7.90
2023-03-07T15:23:22.886Z,7.63
2023-03-07T15:25:56.451Z,7.71
2023-03-07T15:28:28.255Z,7.26
2023-03-07T15:30:55.927Z,7.55
2023-03-07T15:33:24.366Z,7.04
2023-03-07T15:36:10.331Z,7.49
2023-03-07T15:38:37.834Z,7.32
2023-03-07T15:41:23.697Z,7.87
2023-03-07T15:44:03.489Z,7.66
2023-03-07T15:46:31.325Z,7.90
2023-03-07T15:48:58.226Z,8.41
2023-03-07T15:51:27.348Z,8.37
2023-03-07T15:53:58.250Z,7.95
2023-03-07T15:56:30.435Z,8.83
2023-03-07T15:58:59.869Z,8.84
2023-03-07T16:01:28.830Z,8.71
2023-03-07T16:03:57.678Z,8.51
2023-03-07T16:06:40.337Z,8.87
2023-03-07T16:09:10.160Z,7.69
2023-03-07T16:11:38.154Z,8.63
2023-03-07T16:14:04.897Z,8.24
2023-03-07T16:16:31.819Z,8.01
2023-03-07T16:18:59.043Z,9.41
2023-03-07T16:21:27.002Z,8.90
2023-03-07T16:23:56.728Z,7.91
2023-03-07T16:26:25.304Z,8.57
2023-03-07T16:28:52.450Z,9.01
2023-03-07T16:31:20.509Z,9.28
2023-03-07T16:33:48.156Z,9.05
2023-03-07T16:36:15.894Z,9.80
2023-03-07T16:38:42.839Z,8.84
2023-03-07T16:41:21.034Z,8.82
2023-03-07T16:43:52.737Z,8.97
2023-03-07T16:46:20.766Z,8.43
2023-03-07T16:48:47.623Z,8.82
2023-03-07T16:51:19.502Z,9.13
2023-03-07T16:53:47.163Z,8.94
2023-03-07T16:56:32.916Z,8.92
2023-03-07T16:59:02.039Z,8.45
2023-03-07T17:01:28.657Z,8.96
2023-03-07T17:03:59.175Z,9.17
2023-03-07T17:06:38.401Z,9.11
2023-03-07T17:09:06.397Z,9.13
2023-03-07T17:11:33.556Z,8.23
2023-03-07T17:14:02.898Z,8.48
2023-03-07T17:16:29.999Z,8.44
2023-03-07T17:18:57.963Z,8.34
2023-03-07T17:21:24.782Z,8.44
2023-03-07T17:23:51.487Z,7.94
2023-03-07T17:26:29.079Z,8.63
2023-03-07T17:28:57.018Z,8.72
2023-03-07T17:31:23.556Z,8.85
2023-03-07T17:33:50.376Z,8.54
2023-03-07T17:36:16.748Z,8.37
2023-03-07T17:38:43.342Z,8.60
2023-03-07T17:41:10.120Z,6.92
2023-03-07T17:43:36.505Z,7.75
2023-03-07T17:46:08.736Z,7.73
2023-03-07T17:48:36.013Z,8.32
2023-03-07T17:51:07.141Z,8.57
2023-03-07T17:53:35.137Z,7.85
2023-03-07T17:56:08.793Z,8.37
2023-03-07T17:58:35.190Z,8.18
2023-03-07T18:01:01.969Z,8.17
2023-03-07T18:03:29.361Z,8.02
2023-03-07T18:05:55.892Z,7.83
2023-03-07T18:08:22.997Z,7.92
2023-03-07T18:10:49.470Z,8.16
2023-03-07T18:13:15.852Z,7.88
2023-03-07T18:15:45.948Z,7.97
2023-03-07T18:18:12.893Z,7.73
2023-03-07T18:20:41.862Z,7.52
2023-03-07T18:23:09.013Z,7.80
2023-03-07T18:25:36.037Z,7.31
2023-03-07T18:28:03.368Z,7.51
2023-03-07T18:30:30.615Z,7.38
2023-03-07T18:32:58.235Z,7.04
2023-03-07T18:35:25.311Z,7.20
2023-03-07T18:37:52.240Z,7.86
2023-03-07T18:40:22.188Z,7.62
2023-03-07T18:42:48.813Z,7.38
2023-03-07T18:45:15.741Z,7.55
2023-03-07T18:47:42.682Z,7.54
2023-03-07T18:50:10.360Z,7.63
2023-03-07T18:52:37.101Z,7.22
2023-03-07T18:55:04.424Z,7.32
2023-03-07T18:57:32.282Z,7.66
2023-03-07T18:59:58.981Z,7.06
2023-03-07T19:02:25.590Z,7.62
2023-03-07T19:04:53.658Z,7.40
2023-03-07T19:07:20.313Z,7.10
2023-03-07T19:09:53.386Z,6.61
2023-03-07T19:12:20.398Z,6.72
2023-03-07T19:14:47.059Z,6.91
2023-03-07T19:17:13.594Z,5.81
2023-03-07T19:19:40.141Z,6.86
2023-03-07T19:22:07.784Z,6.88
2023-03-07T19:24:34.649Z,7.16
2023-03-07T19:27:01.260Z,6.73
2023-03-07T19:29:28.135Z,6.79
2023-03-07T19:31:54.882Z,6.97
2023-03-07T19:34:21.539Z,6.88
2023-03-07T19:36:47.910Z,7.02
2023-03-07T19:39:20.599Z,7.30
2023-03-07T19:41:50.704Z,6.77
2023-03-07T19:44:17.621Z,7.17
2023-03-07T19:46:46.401Z,7.48
2023-03-07T19:49:16.982Z,7.42
2023-03-07T19:51:43.845Z,7.48
2023-03-07T19:54:13.495Z,7.37
2023-03-07T19:56:42.686Z,7.35
2023-03-07T19:59:10.479Z,7.36
2023-03-07T20:01:38.201Z,6.99
2023-03-07T20:04:06.460Z,6.83
2023-03-07T20:06:33.659Z,6.96
2023-03-07T20:09:00.537Z,7.03
2023-03-07T20:11:31.805Z,6.96
2023-03-07T20:13:59.649Z,6.88
2023-03-07T20:16:29.119Z,6.89
2023-03-07T20:18:58.317Z,6.77
2023-03-07T20:21:28.139Z,7.08
2023-03-07T20:23:59.085Z,7.08
2023-03-07T20:26:27.636Z,7.08
2023-03-07T20:28:56.256Z,7.06
2023-03-07T20:31:23.822Z,7.12
2023-03-07T20:33:52.321Z,7.31
2023-03-07T20:36:22.565Z,7.29
2023-03-07T20:38:55.050Z,7.54
2023-03-07T20:41:23.666Z,7.49
2023-03-07T20:43:51.062Z,7.44
2023-03-07T20:46:18.806Z,7.54
2023-03-07T20:48:46.344Z,7.31
2023-03-07T20:51:21.037Z,6.92
2023-03-07T20:53:51.678Z,6.65
2023-03-07T20:56:19.370Z,6.65
2023-03-07T20:58:46.203Z,6.30
2023-03-07T21:01:15.135Z,6.46
2023-03-07T21:03:41.775Z,6.24
2023-03-07T21:06:08.634Z,6.58
2023-03-07T21:08:36.103Z,6.62
2023-03-07T21:11:02.806Z,6.59
2023-03-07T21:13:30.161Z,6.60
2023-03-07T21:15:58.035Z,6.51
2023-03-07T21:18:26.149Z,6.36
2023-03-07T21:20:52.963Z,6.26
2023-03-07T21:23:19.603Z,6.80
2023-03-07T21:25:46.742Z,6.45
2023-03-07T21:28:16.809Z,6.58
2023-03-07T21:30:43.609Z,6.58
2023-03-07T21:33:10.835Z,6.67
2023-03-07T21:35:41.275Z,6.53
2023-03-07T21:38:08.635Z,6.36
2023-03-07T21:40:35.391Z,6.65
2023-03-07T21:43:03.108Z,6.85
2023-03-07T21:45:31.714Z,6.67
2023-03-07T21:47:58.799Z,6.36
2023-03-07T21:50:25.831Z,6.39
2023-03-07T21:52:52.997Z,6.08
2023-03-07T21:55:19.813Z,6.30
2023-03-07T21:57:46.626Z,5.96
2023-03-07T22:00:17.204Z,6.34
2023-03-07T22:02:44.528Z,5.87
2023-03-07T22:05:13.324Z,6.24
2023-03-07T22:07:40.669Z,6.11
2023-03-07T22:10:07.590Z,5.90
2023-03-07T22:12:34.570Z,6.09
2023-03-07T22:15:01.771Z,5.99
2023-03-07T22:17:28.281Z,6.26
2023-03-07T22:19:55.864Z,5.88
2023-03-07T22:22:23.052Z,5.68
2023-03-07T22:24:49.897Z,5.59
2023-03-07T22:27:16.532Z,5.91
2023-03-07T22:29:44.462Z,6.01
2023-03-07T22:32:11.654Z,5.90
2023-03-07T22:34:38.298Z,6.11
2023-03-07T22:37:05.316Z,5.98
2023-03-07T22:39:31.968Z,5.99
2023-03-07T22:41:58.788Z,5.86
2023-03-07T22:44:25.174Z,6.06
2023-03-07T22:46:51.682Z,6.08
2023-03-07T22:49:18.623Z,5.64
2023-03-07T22:51:46.206Z,5.96
2023-03-07T22:54:13.143Z,6.08
2023-03-07T22:56:40.598Z,6.24
2023-03-07T22:59:07.785Z,5.99
2023-03-07T23:01:34.642Z,6.22
2023-03-07T23:04:01.200Z,6.17
2023-03-07T23:06:30.185Z,6.14
2023-03-07T23:08:59.526Z,5.91
2023-03-07T23:11:26.657Z,5.99
2023-03-07T23:13:54.186Z,6.18
2023-03-07T23:16:22.185Z,6.15
2023-03-07T23:18:50.966Z,6.25
2023-03-07T23:21:19.271Z,6.42
2023-03-07T23:23:45.870Z,6.05
2023-03-07T23:26:19.729Z,6.05
2023-03-07T23:28:46.291Z,5.85
2023-03-07T23:31:20.290Z,5.96
2023-03-07T23:33:47.217Z,6.06
2023-03-07T23:36:14.051Z,6.08
2023-03-07T23:38:40.703Z,6.05
2023-03-07T23:41:07.933Z,5.86
2023-03-07T23:43:34.766Z,5.89
2023-03-07T23:46:01.235Z,5.83
2023-03-07T23:48:27.733Z,5.28
2023-03-07T23:50:54.204Z,5.64
2023-03-07T23:53:20.706Z,5.64
2023-03-07T23:55:47.239Z,6.02
2023-03-07T23:58:13.793Z,6.13
